createdAt,value
2018-08-27T00:02:19.459Z,9.92
2018-08-27T00:04:46.628Z,10.00
2018-08-27T00:07:14.020Z,10.08
2018-08-27T00:09:41.189Z,10.19
2018-08-27T00:12:08.348Z,9.98
2018-08-27T00:14:35.534Z,9.73
2018-08-27T00:17:02.928Z,9.78
2018-08-27T00:19:30.153Z,9.78
2018-08-27T00:21:57.324Z,9.64
2018-08-27T00:24:24.490Z,9.61
2018-08-27T00:26:51.696Z,9.62
2018-08-27T00:29:18.813Z,9.66
2018-08-27T00:31:45.969Z,9.31
2018-08-27T00:34:13.500Z,9.43
2018-08-27T00:36:40.585Z,9.58
2018-08-27T00:39:09.469Z,9.63
2018-08-27T00:41:36.644Z,9.50
2018-08-27T00:44:03.824Z,9.42
2018-08-27T00:46:30.937Z,9.48
2018-08-27T00:48:58.185Z,9.60
2018-08-27T00:51:25.338Z,9.61
2018-08-27T00:53:52.469Z,9.36
2018-08-27T00:56:19.618Z,9.47
2018-08-27T00:58:46.731Z,9.19
2018-08-27T01:01:13.973Z,9.15
2018-08-27T01:03:41.166Z,9.08
2018-08-27T01:06:08.292Z,8.56
2018-08-27T01:08:35.526Z,8.75
2018-08-27T01:11:02.668Z,8.81
2018-08-27T01:13:29.754Z,8.95
2018-08-27T01:15:56.902Z,9.00
2018-08-27T01:18:24.052Z,9.00
2018-08-27T01:20:51.169Z,8.99
2018-08-27T01:23:18.301Z,9.03
2018-08-27T01:25:45.452Z,8.55
2018-08-27T01:28:12.756Z,8.91
2018-08-27T01:30:39.963Z,8.95
2018-08-27T01:33:07.092Z,8.99
2018-08-27T01:35:34.289Z,8.97
2018-08-27T01:38:01.381Z,8.69
2018-08-27T01:40:28.645Z,8.44
2018-08-27T01:42:55.807Z,8.05
2018-08-27T01:45:22.941Z,8.11
2018-08-27T01:47:50.076Z,8.28
2018-08-27T01:50:17.241Z,8.47
2018-08-27T01:52:44.448Z,8.59
2018-08-27T01:55:11.732Z,8.60
2018-08-27T01:57:38.984Z,8.42
2018-08-27T02:00:08.876Z,8.38
2018-08-27T02:02:35.987Z,8.32
2018-08-27T02:05:03.584Z,8.49
2018-08-27T02:07:30.723Z,8.46
2018-08-27T02:09:57.884Z,8.49
2018-08-27T02:12:25.121Z,8.22
2018-08-27T02:14:52.248Z,8.33
2018-08-27T02:17:19.443Z,8.20
2018-08-27T02:19:46.547Z,8.32
2018-08-27T02:22:13.728Z,8.31
2018-08-27T02:24:41.090Z,8.30
2018-08-27T02:27:08.332Z,8.08
2018-08-27T02:29:35.465Z,8.17
2018-08-27T02:32:02.860Z,8.19
2018-08-27T02:34:29.973Z,8.19
2018-08-27T02:36:57.093Z,8.06
2018-08-27T02:39:24.372Z,7.65
2018-08-27T02:41:51.501Z,7.66
2018-08-27T02:44:18.630Z,7.84
2018-08-27T02:46:45.819Z,7.76
2018-08-27T02:49:12.932Z,7.92
2018-08-27T02:51:40.068Z,7.87
2018-08-27T02:54:07.325Z,7.86
2018-08-27T02:56:34.452Z,7.99
2018-08-27T02:59:01.684Z,7.96
2018-08-27T03:01:28.811Z,7.89
2018-08-27T03:03:55.952Z,7.91
2018-08-27T03:06:23.108Z,7.84
2018-08-27T03:08:50.228Z,7.82
2018-08-27T03:11:17.429Z,7.71
2018-08-27T03:13:44.525Z,7.81
2018-08-27T03:16:11.676Z,7.54
2018-08-27T03:18:38.949Z,7.65
2018-08-27T03:21:06.096Z,7.78
2018-08-27T03:23:33.295Z,7.90
2018-08-27T03:26:00.544Z,7.56
2018-08-27T03:28:27.667Z,7.38
2018-08-27T03:30:54.857Z,7.58
2018-08-27T03:33:22.074Z,7.76
2018-08-27T03:35:49.215Z,7.79
2018-08-27T03:38:16.469Z,7.80
2018-08-27T03:40:43.686Z,7.58
2018-08-27T03:43:10.799Z,7.34
2018-08-27T03:45:37.956Z,7.35
2018-08-27T03:48:05.111Z,7.44
2018-08-27T03:50:32.209Z,7.60
2018-08-27T03:52:59.317Z,7.63
2018-08-27T03:55:26.560Z,7.53
2018-08-27T03:57:53.779Z,7.27
2018-08-27T04:00:20.952Z,7.17
2018-08-27T04:02:48.144Z,7.35
2018-08-27T04:05:15.520Z,7.16
2018-08-27T04:07:42.636Z,6.75
2018-08-27T04:10:09.797Z,7.31
2018-08-27T04:12:36.945Z,7.39
2018-08-27T04:15:04.417Z,7.50
2018-08-27T04:17:32.715Z,7.57
2018-08-27T04:20:01.226Z,7.57
2018-08-27T04:22:28.422Z,7.49
2018-08-27T04:24:55.545Z,7.21
2018-08-27T04:27:22.777Z,7.47
2018-08-27T04:29:50.148Z,7.46
2018-08-27T04:32:17.268Z,7.44
2018-08-27T04:34:44.708Z,7.46
2018-08-27T04:37:12.246Z,7.60
2018-08-27T04:39:39.308Z,7.50
2018-08-27T04:42:06.612Z,7.55
2018-08-27T04:44:33.772Z,7.43
2018-08-27T04:47:00.942Z,7.29
2018-08-27T04:49:28.149Z,7.41
2018-08-27T04:51:55.273Z,7.27
2018-08-27T04:54:22.421Z,7.42
2018-08-27T04:56:49.593Z,7.51
2018-08-27T04:59:20.569Z,7.68
2018-08-27T05:01:47.804Z,7.46
2018-08-27T05:04:15.005Z,7.63
2018-08-27T05:06:42.220Z,7.69
2018-08-27T05:09:10.178Z,7.69
2018-08-27T05:11:37.956Z,7.81
2018-08-27T05:14:05.471Z,8.04
2018-08-27T05:16:32.613Z,8.06
2018-08-27T05:18:59.807Z,8.03
2018-08-27T05:21:26.965Z,8.08
2018-08-27T05:23:54.095Z,8.14
2018-08-27T05:26:21.421Z,8.24
2018-08-27T05:28:48.618Z,8.44
2018-08-27T05:31:15.850Z,8.50
2018-08-27T05:33:43.109Z,8.64
2018-08-27T05:36:10.241Z,8.94
2018-08-27T05:38:37.510Z,8.99
2018-08-27T05:41:04.644Z,9.33
2018-08-27T05:43:31.804Z,9.58
2018-08-27T05:45:58.953Z,9.75
2018-08-27T05:48:26.074Z,9.67
2018-08-27T05:50:53.227Z,9.97
2018-08-27T05:53:20.516Z,10.30
2018-08-27T05:55:47.707Z,10.40
2018-08-27T05:58:14.944Z,10.65
2018-08-27T06:00:42.200Z,10.63
2018-08-27T06:03:09.348Z,11.10
2018-08-27T06:05:36.582Z,11.32
2018-08-27T06:08:03.765Z,11.57
2018-08-27T06:10:30.933Z,11.42
2018-08-27T06:12:58.013Z,11.59
2018-08-27T06:15:25.130Z,11.67
2018-08-27T06:17:52.252Z,11.77
2018-08-27T06:20:19.539Z,11.94
2018-08-27T06:22:46.677Z,12.18
2018-08-27T06:25:13.970Z,12.08
2018-08-27T06:27:41.196Z,12.27
2018-08-27T06:30:08.376Z,12.35
2018-08-27T06:32:35.554Z,12.53
2018-08-27T06:35:03.132Z,12.70
2018-08-27T06:37:30.290Z,12.70
2018-08-27T06:39:57.467Z,12.93
2018-08-27T06:42:24.619Z,12.92
2018-08-27T06:44:51.710Z,13.18
2018-08-27T06:47:19.059Z,13.44
2018-08-27T06:49:46.260Z,13.30
2018-08-27T06:52:13.400Z,13.69
2018-08-27T06:54:40.525Z,14.04
2018-08-27T06:57:07.649Z,14.16
2018-08-27T06:59:34.836Z,14.43
2018-08-27T07:02:02.099Z,14.54
2018-08-27T07:04:29.199Z,14.60
2018-08-27T07:06:56.332Z,14.83
2018-08-27T07:09:23.444Z,14.87
2018-08-27T07:11:50.595Z,15.10
2018-08-27T07:14:17.908Z,15.13
2018-08-27T07:16:44.988Z,15.56
2018-08-27T07:19:12.153Z,15.63
2018-08-27T07:21:39.412Z,15.92
2018-08-27T07:24:06.592Z,16.25
2018-08-27T07:26:33.752Z,16.78
2018-08-27T07:29:00.950Z,16.89
2018-08-27T07:31:28.069Z,17.57
2018-08-27T07:33:55.254Z,17.69
2018-08-27T07:36:22.444Z,17.64
2018-08-27T07:38:49.582Z,18.17
2018-08-27T07:41:16.938Z,18.05
2018-08-27T07:43:44.212Z,18.12
2018-08-27T07:46:11.316Z,18.40
2018-08-27T07:48:38.518Z,18.51
2018-08-27T07:51:05.689Z,18.22
2018-08-27T07:53:32.860Z,18.09
2018-08-27T07:56:00.009Z,17.89
2018-08-27T07:58:27.207Z,17.94
2018-08-27T08:00:54.458Z,18.16
2018-08-27T08:03:21.793Z,18.22
2018-08-27T08:05:48.948Z,18.23
2018-08-27T08:08:16.227Z,18.30
2018-08-27T08:10:43.455Z,18.26
2018-08-27T08:13:10.611Z,18.22
2018-08-27T08:15:37.792Z,18.14
2018-08-27T08:18:09.504Z,18.00
2018-08-27T08:20:36.728Z,18.06
2018-08-27T08:23:03.839Z,18.14
2018-08-27T08:25:30.992Z,18.09
2018-08-27T08:27:58.280Z,18.22
2018-08-27T08:30:25.403Z,18.01
2018-08-27T08:32:52.529Z,17.92
2018-08-27T08:35:19.690Z,18.05
2018-08-27T08:37:46.881Z,18.00
2018-08-27T08:40:14.220Z,18.16
2018-08-27T08:42:41.408Z,18.23
2018-08-27T08:45:08.526Z,18.61
2018-08-27T08:47:35.721Z,18.66
2018-08-27T08:50:02.980Z,18.77
2018-08-27T08:52:30.144Z,18.68
2018-08-27T08:54:57.361Z,18.81
2018-08-27T08:57:24.517Z,18.41
2018-08-27T08:59:51.722Z,18.68
2018-08-27T09:02:18.873Z,18.93
2018-08-27T09:04:46.030Z,19.11
2018-08-27T09:07:13.321Z,19.36
2018-08-27T09:09:40.649Z,19.55
2018-08-27T09:12:07.769Z,19.62
2018-08-27T09:14:35.038Z,19.45
2018-08-27T09:17:02.152Z,19.63
2018-08-27T09:19:29.353Z,19.61
2018-08-27T09:21:56.569Z,19.60
2018-08-27T09:24:23.681Z,20.04
2018-08-27T09:26:50.812Z,19.94
2018-08-27T09:29:17.959Z,19.82
2018-08-27T09:31:45.103Z,19.63
2018-08-27T09:34:12.452Z,20.06
2018-08-27T09:36:39.606Z,19.78
2018-08-27T09:39:07.801Z,19.89
2018-08-27T09:41:35.015Z,19.84
2018-08-27T09:44:02.188Z,20.14
2018-08-27T09:46:29.454Z,19.67
2018-08-27T09:48:56.636Z,20.01
2018-08-27T09:51:23.792Z,20.00
2018-08-27T09:53:50.930Z,20.47
2018-08-27T09:56:18.052Z,20.83
2018-08-27T09:58:45.202Z,20.80
2018-08-27T10:01:18.289Z,21.03
2018-08-27T10:03:45.430Z,20.73
2018-08-27T10:06:12.729Z,20.42
2018-08-27T10:08:40.008Z,20.39
2018-08-27T10:11:07.140Z,20.25
2018-08-27T10:13:34.461Z,20.53
2018-08-27T10:16:01.588Z,20.76
2018-08-27T10:18:28.729Z,21.28
2018-08-27T10:20:55.988Z,21.79
2018-08-27T10:23:23.096Z,21.67
2018-08-27T10:25:50.273Z,21.51
2018-08-27T10:28:17.413Z,21.61
2018-08-27T10:30:44.538Z,21.49
2018-08-27T10:33:11.973Z,21.02
2018-08-27T10:35:39.155Z,21.14
2018-08-27T10:38:06.396Z,21.36
2018-08-27T10:40:33.582Z,21.35
2018-08-27T10:43:00.690Z,21.69
2018-08-27T10:45:27.824Z,21.87
2018-08-27T10:47:55.056Z,22.24
2018-08-27T10:50:22.264Z,22.72
2018-08-27T10:52:49.358Z,22.65
2018-08-27T10:55:16.589Z,22.78
2018-08-27T10:57:43.830Z,23.15
2018-08-27T11:00:11.081Z,23.07
2018-08-27T11:02:38.369Z,23.15
2018-08-27T11:05:05.584Z,23.21
2018-08-27T11:07:32.800Z,23.40
2018-08-27T11:09:59.920Z,23.37
2018-08-27T11:12:27.133Z,23.47
2018-08-27T11:14:54.376Z,23.43
2018-08-27T11:17:22.144Z,23.39
2018-08-27T11:19:49.396Z,23.61
2018-08-27T11:22:16.670Z,23.68
2018-08-27T11:24:43.792Z,23.34
2018-08-27T11:27:10.989Z,23.00
2018-08-27T11:29:38.136Z,22.87
2018-08-27T11:32:05.309Z,22.95
2018-08-27T11:34:32.516Z,23.10
2018-08-27T11:36:59.636Z,23.38
2018-08-27T11:39:26.802Z,23.59
2018-08-27T11:41:53.930Z,23.81
2018-08-27T11:44:21.100Z,24.06
2018-08-27T11:46:48.236Z,24.26
2018-08-27T11:49:15.465Z,23.92
2018-08-27T11:51:42.665Z,23.62
2018-08-27T11:54:09.909Z,23.57
2018-08-27T11:59:11.070Z,23.17
2018-08-27T12:01:38.355Z,22.98
2018-08-27T12:04:05.531Z,22.68
2018-08-27T12:06:32.703Z,22.66
2018-08-27T12:08:59.929Z,22.66
2018-08-27T12:11:27.041Z,22.65
2018-08-27T12:13:54.212Z,22.74
2018-08-27T12:16:21.384Z,22.62
2018-08-27T12:18:48.539Z,22.59
2018-08-27T12:21:15.722Z,22.78
2018-08-27T12:26:16.677Z,22.87
2018-08-27T12:28:43.980Z,22.94
2018-08-27T12:31:11.119Z,23.28
2018-08-27T12:33:38.356Z,23.03
2018-08-27T12:36:05.605Z,23.01
2018-08-27T12:38:32.768Z,23.34
2018-08-27T12:41:00.083Z,23.42
2018-08-27T12:43:27.228Z,23.40
2018-08-27T12:45:54.370Z,23.40
2018-08-27T12:48:21.642Z,23.55
2018-08-27T12:50:48.876Z,23.23
2018-08-27T12:53:16.068Z,23.07
2018-08-27T12:55:43.364Z,22.56
2018-08-27T12:58:10.521Z,22.55
2018-08-27T13:00:37.761Z,22.74
2018-08-27T13:03:05.045Z,22.64
2018-08-27T13:05:32.237Z,22.66
2018-08-27T13:07:59.465Z,22.59
2018-08-27T13:10:26.650Z,22.58
2018-08-27T13:12:53.811Z,22.79
2018-08-27T13:15:21.608Z,22.78
2018-08-27T13:17:48.801Z,22.75
2018-08-27T13:20:16.048Z,22.59
2018-08-27T13:22:43.347Z,22.69
2018-08-27T13:25:10.495Z,22.94
2018-08-27T13:27:37.659Z,23.12
2018-08-27T13:30:05.198Z,23.11
2018-08-27T13:32:32.341Z,23.35
2018-08-27T13:34:59.577Z,23.67
2018-08-27T13:37:26.828Z,23.58
2018-08-27T13:39:54.157Z,24.22
2018-08-27T13:42:21.357Z,24.24
2018-08-27T13:44:48.569Z,24.16
2018-08-27T13:47:15.784Z,23.93
2018-08-27T13:49:43.106Z,23.19
2018-08-27T13:52:10.297Z,23.32
2018-08-27T13:54:37.484Z,23.30
2018-08-27T13:57:04.661Z,23.36
2018-08-27T13:59:31.807Z,23.26
2018-08-27T14:01:58.953Z,23.32
2018-08-27T14:04:26.187Z,23.47
2018-08-27T14:06:53.341Z,23.59
2018-08-27T14:09:20.663Z,23.45
2018-08-27T14:11:54.599Z,23.41
2018-08-27T14:14:21.769Z,22.90
2018-08-27T14:16:48.961Z,22.99
2018-08-27T14:19:16.132Z,23.20
2018-08-27T14:21:43.262Z,23.46
2018-08-27T14:24:10.569Z,23.36
2018-08-27T14:26:37.679Z,23.36
2018-08-27T14:29:05.037Z,23.28
2018-08-27T14:31:32.397Z,23.14
2018-08-27T14:33:59.539Z,23.23
2018-08-27T14:36:26.740Z,23.28
2018-08-27T14:38:54.000Z,23.29
2018-08-27T14:41:21.085Z,23.13
2018-08-27T14:43:48.337Z,23.22
2018-08-27T14:46:15.677Z,23.23
2018-08-27T14:48:42.813Z,23.48
2018-08-27T14:51:09.937Z,23.51
2018-08-27T14:53:37.077Z,23.52
2018-08-27T14:56:04.422Z,23.73
2018-08-27T14:58:31.598Z,23.72
2018-08-27T15:01:04.369Z,23.79
2018-08-27T15:03:31.569Z,23.67
2018-08-27T15:05:59.228Z,23.53
2018-08-27T15:08:26.417Z,23.27
2018-08-27T15:10:53.633Z,23.05
2018-08-27T15:13:20.764Z,23.08
2018-08-27T15:15:48.204Z,22.98
2018-08-27T15:18:15.464Z,23.07
2018-08-27T15:20:42.601Z,23.14
2018-08-27T15:23:09.816Z,23.22
2018-08-27T15:25:37.285Z,23.15
2018-08-27T15:28:04.706Z,23.09
2018-08-27T15:30:31.959Z,23.12
2018-08-27T15:32:59.317Z,23.05
2018-08-27T15:35:33.347Z,22.77
2018-08-27T15:38:00.498Z,22.65
2018-08-27T15:40:27.749Z,22.64
2018-08-27T15:42:54.908Z,22.61
2018-08-27T15:45:22.070Z,22.47
2018-08-27T15:47:49.224Z,22.42
2018-08-27T15:50:16.509Z,22.51
2018-08-27T15:52:43.801Z,22.49
2018-08-27T15:55:10.940Z,22.42
2018-08-27T15:57:38.256Z,22.45
2018-08-27T16:00:07.717Z,22.42
2018-08-27T16:02:34.825Z,22.41
2018-08-27T16:05:02.205Z,22.33
2018-08-27T16:07:29.372Z,22.32
2018-08-27T16:09:56.517Z,22.31
2018-08-27T16:12:23.712Z,22.21
2018-08-27T16:14:50.809Z,22.02
2018-08-27T16:17:17.949Z,21.98
2018-08-27T16:19:45.376Z,21.96
2018-08-27T16:22:12.486Z,21.89
2018-08-27T16:24:39.654Z,21.91
2018-08-27T16:27:06.785Z,21.89
2018-08-27T16:29:34.920Z,21.85
2018-08-27T16:32:02.173Z,21.77
2018-08-27T16:34:29.314Z,21.89
2018-08-27T16:36:56.441Z,21.97
2018-08-27T16:39:23.669Z,21.98
2018-08-27T16:41:50.832Z,21.91
2018-08-27T16:44:17.980Z,21.80
2018-08-27T16:46:45.252Z,21.67
2018-08-27T16:49:12.608Z,21.60
2018-08-27T16:51:39.779Z,21.62
2018-08-27T16:54:06.956Z,21.61
2018-08-27T16:56:34.105Z,21.57
2018-08-27T16:59:01.269Z,21.51
2018-08-27T17:01:28.599Z,21.54
2018-08-27T17:03:55.765Z,21.57
2018-08-27T17:06:22.866Z,21.61
2018-08-27T17:08:50.028Z,21.63
2018-08-27T17:11:17.224Z,21.59
2018-08-27T17:13:44.601Z,21.61
2018-08-27T17:16:11.842Z,21.54
2018-08-27T17:18:38.977Z,21.56
2018-08-27T17:21:06.138Z,21.56
2018-08-27T17:23:33.301Z,21.52
2018-08-27T17:26:00.489Z,21.48
2018-08-27T17:28:27.637Z,21.48
2018-08-27T17:30:54.838Z,21.44
2018-08-27T17:33:22.004Z,21.36
2018-08-27T17:35:49.225Z,21.30
2018-08-27T17:38:17.029Z,21.26
2018-08-27T17:40:45.205Z,21.33
2018-08-27T17:43:12.549Z,21.32
2018-08-27T17:45:39.935Z,21.21
2018-08-27T17:48:06.996Z,21.11
2018-08-27T17:50:34.212Z,21.05
2018-08-27T17:53:01.385Z,21.03
2018-08-27T17:55:28.525Z,21.04
2018-08-27T17:57:55.760Z,20.97
2018-08-27T18:00:23.602Z,20.93
2018-08-27T18:02:50.762Z,20.78
2018-08-27T18:05:17.966Z,20.70
2018-08-27T18:07:45.159Z,20.62
2018-08-27T18:10:12.316Z,20.56
2018-08-27T18:12:39.565Z,20.49
2018-08-27T18:15:08.232Z,20.61
2018-08-27T18:17:35.434Z,20.69
2018-08-27T18:20:03.216Z,20.74
2018-08-27T18:22:30.412Z,20.81
2018-08-27T18:24:57.544Z,20.82
2018-08-27T18:27:24.761Z,20.80
2018-08-27T18:29:51.949Z,20.67
2018-08-27T18:32:19.109Z,20.69
2018-08-27T18:34:46.478Z,20.66
2018-08-27T18:37:13.636Z,20.56
2018-08-27T18:39:40.915Z,20.49
2018-08-27T18:42:08.246Z,20.23
2018-08-27T18:44:35.409Z,20.21
2018-08-27T18:47:02.574Z,20.25
2018-08-27T18:49:29.768Z,20.36
2018-08-27T18:51:56.936Z,20.33
2018-08-27T18:54:24.191Z,20.23
2018-08-27T18:56:51.374Z,20.25
2018-08-27T18:59:19.109Z,20.24
2018-08-27T19:01:46.352Z,20.33
2018-08-27T19:04:13.532Z,20.28
2018-08-27T19:06:40.832Z,20.30
2018-08-27T19:09:08.831Z,20.25
2018-08-27T19:11:42.982Z,20.08
2018-08-27T19:14:10.160Z,19.62
2018-08-27T19:16:37.349Z,19.48
2018-08-27T19:19:04.521Z,19.60
2018-08-27T19:21:31.769Z,19.55
2018-08-27T19:23:58.944Z,19.63
2018-08-27T19:26:26.846Z,19.70
2018-08-27T19:28:54.002Z,19.68
2018-08-27T19:31:21.249Z,19.73
2018-08-27T19:33:48.397Z,19.78
2018-08-27T19:36:15.836Z,19.56
2018-08-27T19:38:49.680Z,19.40
2018-08-27T19:41:16.885Z,19.53
2018-08-27T19:43:44.204Z,19.49
2018-08-27T19:46:11.528Z,19.30
2018-08-27T19:48:38.660Z,19.10
2018-08-27T19:51:05.881Z,18.99
2018-08-27T19:53:32.974Z,18.96
2018-08-27T19:56:00.200Z,18.97
2018-08-27T19:58:27.458Z,18.88
2018-08-27T20:00:54.628Z,18.83
2018-08-27T20:03:21.845Z,18.74
2018-08-27T20:05:49.089Z,18.84
2018-08-27T20:08:16.252Z,19.08
2018-08-27T20:10:43.638Z,19.24
2018-08-27T20:13:10.788Z,19.11
2018-08-27T20:15:38.049Z,19.30
2018-08-27T20:18:05.258Z,19.13
2018-08-27T20:20:32.490Z,19.06
2018-08-27T20:22:59.634Z,18.99
2018-08-27T20:25:26.813Z,18.79
2018-08-27T20:27:53.949Z,18.61
2018-08-27T20:30:21.280Z,18.83
2018-08-27T20:32:48.437Z,18.70
2018-08-27T20:35:15.639Z,18.86
2018-08-27T20:37:43.012Z,18.83
2018-08-27T20:40:10.153Z,18.73
2018-08-27T20:42:37.351Z,18.55
2018-08-27T20:45:05.132Z,18.64
2018-08-27T20:47:32.240Z,18.57
2018-08-27T20:49:59.397Z,18.58
2018-08-27T20:52:26.628Z,18.61
2018-08-27T20:54:53.725Z,18.70
2018-08-27T20:57:20.996Z,18.73
2018-08-27T20:59:48.152Z,18.91
2018-08-27T21:02:15.317Z,19.01
2018-08-27T21:04:43.565Z,19.00
2018-08-27T21:07:10.666Z,19.18
2018-08-27T21:09:37.852Z,19.12
2018-08-27T21:12:05.463Z,19.06
2018-08-27T21:14:42.542Z,19.00
2018-08-27T21:17:09.709Z,19.22
2018-08-27T21:19:36.840Z,19.25
2018-08-27T21:22:04.264Z,19.16
2018-08-27T21:24:31.450Z,19.05
2018-08-27T21:26:58.598Z,18.96
2018-08-27T21:29:25.778Z,18.82
2018-08-27T21:31:52.950Z,18.72
2018-08-27T21:34:20.176Z,18.68
2018-08-27T21:36:47.389Z,18.55
2018-08-27T21:39:14.563Z,18.57
2018-08-27T21:41:41.805Z,18.60
2018-08-27T21:44:08.925Z,18.55
2018-08-27T21:46:36.079Z,18.58
2018-08-27T21:49:03.245Z,18.63
2018-08-27T21:51:30.473Z,18.49
2018-08-27T21:53:57.715Z,18.58
2018-08-27T21:56:24.973Z,18.75
2018-08-27T21:58:52.205Z,18.93
2018-08-27T22:01:19.413Z,19.09
2018-08-27T22:03:52.420Z,18.91
2018-08-27T22:06:19.620Z,18.75
2018-08-27T22:08:46.877Z,18.64
2018-08-27T22:11:14.036Z,18.52
2018-08-27T22:13:41.201Z,18.42
2018-08-27T22:16:08.307Z,18.19
2018-08-27T22:18:35.480Z,17.96
2018-08-27T22:21:02.738Z,17.83
2018-08-27T22:23:29.924Z,17.89
2018-08-27T22:25:57.064Z,17.73
2018-08-27T22:28:24.296Z,17.54
2018-08-27T22:30:51.393Z,17.22
2018-08-27T22:33:18.563Z,17.28
2018-08-27T22:35:45.924Z,17.22
2018-08-27T22:38:13.048Z,17.08
2018-08-27T22:40:40.228Z,16.99
2018-08-27T22:43:07.453Z,17.12
2018-08-27T22:45:41.340Z,17.20
2018-08-27T22:48:08.508Z,17.02
2018-08-27T22:50:35.704Z,17.08
2018-08-27T22:53:02.921Z,17.10
2018-08-27T22:55:30.092Z,16.93
2018-08-27T22:57:57.242Z,17.06
2018-08-27T23:00:26.329Z,17.02
2018-08-27T23:02:59.024Z,17.18
2018-08-27T23:05:26.121Z,17.07
2018-08-27T23:08:00.081Z,17.02
2018-08-27T23:10:27.259Z,17.01
2018-08-27T23:12:55.236Z,17.02
2018-08-27T23:15:22.396Z,17.00
2018-08-27T23:17:49.563Z,17.01
2018-08-27T23:20:16.877Z,16.92
2018-08-27T23:22:44.244Z,16.86
2018-08-27T23:25:11.372Z,16.81
2018-08-27T23:27:38.538Z,16.49
2018-08-27T23:30:05.825Z,16.32
2018-08-27T23:32:32.933Z,16.38
2018-08-27T23:35:00.181Z,16.09
2018-08-27T23:37:27.289Z,16.02
2018-08-27T23:39:54.454Z,16.19
2018-08-27T23:42:21.540Z,16.02
2018-08-27T23:44:48.687Z,15.89
2018-08-27T23:47:16.184Z,16.07
2018-08-27T23:49:43.469Z,16.02
2018-08-27T23:52:10.612Z,16.07
2018-08-27T23:54:37.825Z,15.90
2018-08-27T23:57:05.065Z,16.08
2018-08-27T23:59:32.208Z,16.13
